Time;durP1;ratioP1;P1;durP2;ratioP2;P2;SDS_P1;SDS_P2;PMS_P1;PMS_P2;Temp;Humidity;BMP_temperature;BMP_pressure;BME280_temperature;BME280_humidity;BME280_pressure;Samples;Min_cycle;Max_cycle;Signal;HPM_P1;HPM_P2
2023/01/17 00:01:54;;;;;;;3.38;1.48;;;21.00;99.90;;;;;;5018772;28;20856;-60
2023/01/17 00:09:51;;;;;;;3.73;1.77;;;21.00;99.90;;;;;;5031773;28;20712;-59
2023/01/17 00:12:19;;;;;;;2.53;1.35;;;21.00;99.90;;;;;;5012904;28;20388;-59
2023/01/17 00:14:45;;;;;;;2.90;1.60;;;21.00;99.90;;;;;;5007924;28;20399;-59
2023/01/17 00:17:11;;;;;;;3.42;1.30;;;21.00;99.90;;;;;;5011468;28;20499;-59
2023/01/17 01:34:31;;;;;;;2.42;1.33;;;20.80;99.90;;;;;;5051841;28;20418;-59
2023/01/17 01:36:57;;;;;;;2.10;1.38;;;20.80;99.90;;;;;;5049324;28;20461;-59
2023/01/17 01:39:22;;;;;;;1.88;1.23;;;20.80;99.90;;;;;;5050372;28;20379;-59
2023/01/17 01:41:48;;;;;;;2.83;1.33;;;20.80;99.90;;;;;;5063956;28;20963;-59
2023/01/17 01:44:49;;;;;;;3.23;1.10;;;20.70;99.90;;;;;;5059765;28;20471;-59
2023/01/17 01:47:45;;;;;;;2.08;1.30;;;20.80;99.90;;;;;;5068565;28;20389;-59
2023/01/17 01:50:12;;;;;;;1.85;1.17;;;20.70;99.90;;;;;;5059802;28;20406;-59
2023/01/17 01:52:45;;;;;;;2.22;1.40;;;20.70;99.90;;;;;;5058746;28;20404;-59
2023/01/17 01:55:31;;;;;;;2.08;1.30;;;20.70;99.90;;;;;;5050158;28;20399;-59
2023/01/17 01:58:02;;;;;;;1.60;1.20;;;20.70;99.90;;;;;;5048432;28;20922;-60
2023/01/17 02:00:33;;;;;;;1.30;1.02;;;20.80;99.90;;;;;;5049800;28;20400;-59
2023/01/17 02:03:03;;;;;;;2.83;1.27;;;20.80;99.90;;;;;;5050019;28;20406;-59
2023/01/17 02:05:30;;;;;;;1.88;1.27;;;20.70;99.90;;;;;;5048981;28;20379;-60
2023/01/17 02:08:06;;;;;;;2.05;1.10;;;20.70;99.90;;;;;;5048895;28;20383;-60
2023/01/17 02:10:42;;;;;;;1.85;1.10;;;20.70;99.90;;;;;;5047857;28;20398;-59
2023/01/17 02:13:09;;;;;;;1.67;1.20;;;20.70;99.90;;;;;;5049315;28;20886;-59
2023/01/17 02:15:55;;;;;;;1.50;1.10;;;20.70;99.90;;;;;;5048752;28;20458;-59
2023/01/17 02:18:41;;;;;;;2.00;1.37;;;20.70;99.90;;;;;;5048851;28;20534;-59
2023/01/17 02:21:23;;;;;;;2.15;1.20;;;20.70;99.90;;;;;;5049737;28;20391;-59
2023/01/17 02:24:26;;;;;;;1.50;1.20;;;20.70;99.90;;;;;;5048514;28;20854;-59
2023/01/17 02:27:03;;;;;;;1.40;1.10;;;20.70;99.90;;;;;;5036156;28;20383;-60
2023/01/17 02:29:32;;;;;;;2.33;1.15;;;20.70;99.90;;;;;;5049584;28;20391;-60
2023/01/17 02:32:20;;;;;;;1.80;1.40;;;20.70;99.90;;;;;;5049146;28;20415;-59
2023/01/17 02:34:55;;;;;;;1.60;1.10;;;20.70;99.90;;;;;;5049274;28;20403;-59
2023/01/17 02:37:25;;;;;;;1.83;1.30;;;20.70;99.90;;;;;;5048464;28;20455;-59
2023/01/17 02:39:58;;;;;;;2.20;1.15;;;20.60;99.90;;;;;;5049491;28;20463;-59
2023/01/17 02:42:31;;;;;;;1.70;1.20;;;20.60;99.90;;;;;;5049149;28;20368;-60
2023/01/17 02:44:56;;;;;;;1.13;1.00;;;20.60;99.90;;;;;;5049079;28;20376;-59
2023/01/17 02:47:28;;;;;;;1.85;1.13;;;20.60;99.90;;;;;;5047113;28;20445;-59
2023/01/17 02:50:10;;;;;;;1.50;1.00;;;20.60;99.90;;;;;;5049069;28;20384;-59
2023/01/17 02:52:50;;;;;;;1.60;1.27;;;20.60;99.90;;;;;;5048312;28;20384;-59
2023/01/17 02:55:26;;;;;;;1.70;1.10;;;20.60;99.90;;;;;;5050753;28;20402;-59
2023/01/17 02:58:15;;;;;;;1.50;1.10;;;20.60;99.90;;;;;;5062091;28;20420;-59
2023/01/17 03:00:43;;;;;;;2.13;1.30;;;20.60;99.90;;;;;;5062730;28;20862;-59
2023/01/17 03:03:56;;;;;;;1.80;1.30;;;20.60;99.90;;;;;;5058599;28;20801;-60
2023/01/17 03:06:48;;;;;;;1.50;1.02;;;20.50;99.90;;;;;;5026171;28;20377;-59
2023/01/17 03:09:15;;;;;;;1.70;1.20;;;20.50;99.90;;;;;;5048742;28;20384;-59
2023/01/17 03:11:42;;;;;;;1.75;1.08;;;20.50;99.90;;;;;;5048893;28;20426;-59
2023/01/17 03:14:08;;;;;;;1.98;1.00;;;20.60;99.90;;;;;;5048839;28;20407;-59
2023/01/17 03:16:35;;;;;;;1.40;1.10;;;20.60;99.90;;;;;;5048690;28;20379;-59
2023/01/17 03:19:01;;;;;;;1.20;1.10;;;20.60;99.90;;;;;;5047761;28;20380;-59
2023/01/17 03:21:26;;;;;;;1.20;0.90;;;20.50;99.90;;;;;;5048864;28;20375;-59
2023/01/17 03:23:52;;;;;;;1.05;0.93;;;20.50;99.90;;;;;;5048592;28;20386;-59
2023/01/17 03:26:17;;;;;;;1.70;0.90;;;20.50;99.90;;;;;;5048371;28;20403;-59
2023/01/17 03:28:43;;;;;;;1.27;1.10;;;20.50;99.90;;;;;;5047854;28;20395;-59
2023/01/17 03:31:13;;;;;;;2.13;1.40;;;20.50;99.90;;;;;;5048375;28;20929;-59
2023/01/17 03:33:39;;;;;;;1.15;0.90;;;20.50;99.90;;;;;;5048289;28;20498;-59
2023/01/17 03:36:05;;;;;;;1.85;1.20;;;20.50;99.90;;;;;;5050044;28;20475;-58
2023/01/17 03:38:30;;;;;;;1.90;1.13;;;20.50;99.90;;;;;;5051857;28;20418;-59
2023/01/17 03:40:56;;;;;;;1.53;1.10;;;20.50;99.90;;;;;;5051470;28;20738;-59
2023/01/17 03:43:22;;;;;;;1.30;1.05;;;20.50;99.90;;;;;;5052578;28;20380;-59
2023/01/17 03:45:53;;;;;;;1.40;1.00;;;20.50;99.90;;;;;;5052009;28;20394;-59
2023/01/17 03:48:19;;;;;;;1.10;1.00;;;20.50;99.90;;;;;;5051559;28;20842;-61
2023/01/17 03:50:50;;;;;;;1.20;1.00;;;20.50;99.90;;;;;;5051993;28;20422;-59
2023/01/17 03:53:15;;;;;;;1.25;0.93;;;20.50;99.90;;;;;;5051841;28;20457;-59
2023/01/17 03:55:43;;;;;;;1.90;1.37;;;20.50;99.90;;;;;;5052343;28;20399;-59
2023/01/17 03:58:09;;;;;;;1.65;1.08;;;20.40;99.90;;;;;;5050262;28;20403;-59
2023/01/17 04:00:35;;;;;;;1.13;0.90;;;20.50;99.90;;;;;;5052175;28;20375;-59
2023/01/17 04:03:01;;;;;;;1.10;1.00;;;20.40;99.90;;;;;;5051711;28;20429;-59
2023/01/17 04:05:27;;;;;;;1.30;1.00;;;20.50;99.90;;;;;;5050112;28;20887;-59
2023/01/17 04:07:52;;;;;;;1.40;1.00;;;20.40;99.90;;;;;;5060397;28;20426;-59
2023/01/17 04:10:18;;;;;;;1.10;1.00;;;20.40;99.90;;;;;;5054523;28;20510;-59
2023/01/17 04:12:44;;;;;;;1.43;0.97;;;20.40;99.90;;;;;;5051097;28;20376;-59
2023/01/17 04:15:10;;;;;;;1.35;0.98;;;20.40;99.90;;;;;;5070384;28;20915;-59
2023/01/17 04:17:36;;;;;;;1.27;1.10;;;20.40;99.90;;;;;;5071162;28;20678;-60
2023/01/17 04:20:01;;;;;;;1.20;1.00;;;20.40;99.90;;;;;;5069758;28;20494;-59
2023/01/17 04:22:27;;;;;;;1.30;0.90;;;20.40;99.90;;;;;;5066122;28;20397;-59
2023/01/17 04:24:53;;;;;;;1.30;0.90;;;20.40;99.90;;;;;;5070083;28;20465;-59
2023/01/17 04:27:18;;;;;;;1.50;1.10;;;20.40;99.90;;;;;;5071787;28;20415;-59
2023/01/17 04:29:44;;;;;;;1.43;0.83;;;20.40;99.90;;;;;;5069591;28;20718;-59
2023/01/17 04:32:10;;;;;;;1.43;1.00;;;20.40;99.90;;;;;;5048792;28;20406;-59
2023/01/17 04:34:35;;;;;;;1.38;1.10;;;20.40;99.90;;;;;;5050950;28;20403;-59
2023/01/17 04:37:01;;;;;;;1.33;0.90;;;20.40;99.90;;;;;;5050638;28;20846;-59
2023/01/17 04:39:27;;;;;;;1.23;1.02;;;20.40;99.90;;;;;;5051427;28;20380;-60
2023/01/17 04:41:52;;;;;;;1.10;0.90;;;20.40;99.90;;;;;;5050213;28;20419;-59
2023/01/17 04:44:18;;;;;;;1.23;1.00;;;20.40;99.90;;;;;;5050972;28;20776;-60
2023/01/17 04:46:43;;;;;;;1.70;0.90;;;20.40;99.90;;;;;;5049957;28;20376;-59
2023/01/17 04:49:09;;;;;;;1.03;0.83;;;20.30;99.90;;;;;;5050857;28;20387;-59
2023/01/17 04:51:35;;;;;;;1.50;1.10;;;20.30;99.90;;;;;;5049758;28;20384;-58
2023/01/17 04:54:01;;;;;;;1.30;0.90;;;20.30;99.90;;;;;;5049982;28;20492;-59
2023/01/17 04:56:26;;;;;;;1.10;1.00;;;20.30;99.90;;;;;;5050881;28;20714;-59
2023/01/17 04:58:52;;;;;;;1.07;0.93;;;20.30;99.90;;;;;;5049858;28;20395;-59
2023/01/17 05:01:18;;;;;;;1.45;0.85;;;20.30;99.90;;;;;;5050623;28;20894;-59
2023/01/17 05:03:43;;;;;;;0.93;0.85;;;20.30;99.90;;;;;;5051330;28;20452;-59
2023/01/17 05:06:09;;;;;;;1.00;0.90;;;20.30;99.90;;;;;;5050604;28;20442;-59
2023/01/17 05:08:35;;;;;;;1.25;0.82;;;20.30;99.90;;;;;;5050212;28;20375;-59
2023/01/17 05:11:00;;;;;;;2.17;1.10;;;20.30;99.90;;;;;;5050957;28;20380;-58
2023/01/17 05:13:26;;;;;;;1.40;1.00;;;20.20;99.90;;;;;;5050453;28;20495;-59
2023/01/17 05:15:51;;;;;;;0.80;0.80;;;20.30;99.90;;;;;;5050670;28;20385;-59
2023/01/17 05:18:18;;;;;;;0.90;0.80;;;20.30;99.90;;;;;;5048530;28;20528;-59
2023/01/17 05:20:43;;;;;;;1.40;1.00;;;20.30;99.90;;;;;;5050782;28;20372;-59
2023/01/17 05:23:10;;;;;;;0.93;0.88;;;20.30;99.90;;;;;;5049281;28;20399;-59
2023/01/17 05:25:36;;;;;;;1.30;0.90;;;20.30;99.90;;;;;;5051549;28;20384;-59
2023/01/17 05:28:02;;;;;;;1.20;1.10;;;20.30;99.90;;;;;;5051611;28;20363;-59
2023/01/17 05:30:30;;;;;;;0.80;0.70;;;20.30;99.90;;;;;;5064949;28;20390;-58
2023/01/17 05:32:57;;;;;;;1.98;0.80;;;20.30;99.90;;;;;;5054345;28;20391;-59
2023/01/17 05:35:26;;;;;;;0.60;0.60;;;20.30;99.90;;;;;;5056609;28;20396;-59
2023/01/17 05:37:52;;;;;;;1.00;0.80;;;20.30;99.90;;;;;;5051761;28;20396;-58
2023/01/17 05:40:20;;;;;;;1.00;0.88;;;20.30;99.90;;;;;;5068646;28;20480;-58
2023/01/17 05:42:49;;;;;;;0.90;0.80;;;20.30;99.90;;;;;;5065538;28;20416;-59
2023/01/17 05:45:16;;;;;;;1.10;0.80;;;20.30;99.90;;;;;;5054894;28;20801;-58
2023/01/17 05:47:47;;;;;;;0.80;0.80;;;20.30;99.90;;;;;;5065076;28;20871;-59
2023/01/17 05:50:15;;;;;;;1.23;0.93;;;20.30;99.90;;;;;;5048820;28;20789;-58
2023/01/17 05:52:49;;;;;;;1.17;0.80;;;20.30;99.90;;;;;;5057196;28;20377;-59
2023/01/17 05:55:15;;;;;;;1.67;0.70;;;20.30;99.90;;;;;;5069961;28;20465;-58
2023/01/17 05:57:40;;;;;;;1.13;0.80;;;20.30;99.90;;;;;;5068090;28;20592;-59
2023/01/17 06:00:07;;;;;;;1.10;0.90;;;20.40;99.90;;;;;;5068225;28;20392;-60
2023/01/17 06:02:33;;;;;;;0.90;0.80;;;20.30;99.90;;;;;;5049438;28;20372;-59
2023/01/17 06:04:58;;;;;;;1.23;1.10;;;20.40;99.90;;;;;;5048928;28;20382;-59
2023/01/17 06:07:24;;;;;;;1.47;0.93;;;20.40;99.90;;;;;;5057443;28;20414;-60
2023/01/17 06:09:49;;;;;;;1.10;0.70;;;20.40;99.90;;;;;;5065802;28;20393;-59
2023/01/17 06:12:15;;;;;;;1.60;0.80;;;20.40;99.90;;;;;;5069779;28;20454;-59
2023/01/17 06:14:41;;;;;;;1.43;0.90;;;20.40;99.90;;;;;;5069368;28;20843;-58
2023/01/17 06:17:06;;;;;;;1.92;0.70;;;20.40;99.90;;;;;;5046769;28;20487;-59
2023/01/17 06:19:32;;;;;;;0.90;0.73;;;20.50;99.90;;;;;;5050568;28;20823;-59
2023/01/17 06:21:57;;;;;;;1.37;0.80;;;20.50;99.90;;;;;;5050040;28;20395;-59
2023/01/17 06:24:23;;;;;;;1.40;0.90;;;20.50;99.90;;;;;;5049709;28;20391;-60
2023/01/17 06:26:49;;;;;;;2.10;0.83;;;20.50;99.90;;;;;;5049287;28;20400;-58
2023/01/17 06:29:14;;;;;;;1.90;1.30;;;20.40;99.90;;;;;;5049776;28;20934;-59
2023/01/17 06:31:40;;;;;;;1.20;0.77;;;20.40;99.90;;;;;;5050267;28;20372;-58
2023/01/17 06:34:05;;;;;;;1.97;0.90;;;20.50;99.90;;;;;;5049457;28;20407;-58
2023/01/17 06:36:34;;;;;;;1.00;0.70;;;20.40;99.90;;;;;;5050301;28;20855;-59
2023/01/17 06:39:00;;;;;;;2.42;0.90;;;20.50;99.90;;;;;;5050370;28;20386;-58
2023/01/17 06:41:25;;;;;;;2.87;0.77;;;20.50;99.90;;;;;;5050298;28;20723;-58
2023/01/17 06:43:55;;;;;;;0.82;0.70;;;20.50;99.90;;;;;;5050069;28;20388;-58
2023/01/17 06:46:22;;;;;;;0.95;0.80;;;20.60;99.90;;;;;;5050588;28;20479;-60
2023/01/17 06:48:48;;;;;;;1.00;0.70;;;20.60;99.90;;;;;;5049001;28;20502;-60
2023/01/17 06:51:14;;;;;;;1.48;0.98;;;20.60;99.90;;;;;;5049912;28;20440;-59
2023/01/17 06:53:39;;;;;;;1.13;0.80;;;20.60;99.90;;;;;;5050177;28;20411;-58
2023/01/17 06:56:06;;;;;;;1.27;0.87;;;20.70;99.90;;;;;;5049813;28;20462;-59
2023/01/17 06:58:31;;;;;;;1.83;1.00;;;20.70;99.90;;;;;;5049686;28;20731;-59
2023/01/17 07:00:57;;;;;;;1.30;0.80;;;20.70;99.90;;;;;;5049513;28;20380;-58
2023/01/17 07:03:25;;;;;;;1.43;0.70;;;20.70;99.90;;;;;;5049795;28;20398;-59
2023/01/17 07:05:51;;;;;;;1.00;0.70;;;20.70;99.90;;;;;;5049950;28;20376;-59
2023/01/17 07:08:18;;;;;;;1.55;0.60;;;20.70;99.90;;;;;;5048594;28;20478;-59
2023/01/17 07:10:45;;;;;;;1.15;0.80;;;20.70;99.90;;;;;;5049605;28;20380;-59
2023/01/17 07:13:12;;;;;;;1.13;0.73;;;20.70;99.90;;;;;;5049652;28;20407;-59
2023/01/17 07:15:38;;;;;;;0.82;0.75;;;20.70;99.90;;;;;;5049420;28;20375;-59
2023/01/17 07:18:04;;;;;;;0.93;0.73;;;20.70;99.90;;;;;;5049423;28;20376;-58
2023/01/17 07:20:31;;;;;;;0.90;0.70;;;20.70;99.90;;;;;;5049403;28;20953;-58
2023/01/17 07:22:57;;;;;;;0.90;0.80;;;20.80;99.90;;;;;;5048724;28;20376;-59
2023/01/17 07:25:22;;;;;;;1.48;0.80;;;20.80;99.90;;;;;;5044159;28;20368;-59
2023/01/17 07:27:56;;;;;;;1.50;0.87;;;20.80;99.90;;;;;;5049008;28;20904;-58
2023/01/17 07:30:22;;;;;;;1.40;0.70;;;20.80;99.90;;;;;;5049355;28;20382;-58
2023/01/17 07:32:52;;;;;;;0.93;0.77;;;20.70;99.90;;;;;;5049496;28;20371;-59
2023/01/17 07:35:19;;;;;;;2.67;0.65;;;20.70;99.90;;;;;;5045378;28;20404;-59
2023/01/17 07:37:48;;;;;;;2.83;0.88;;;20.60;99.90;;;;;;5062881;28;20477;-58
2023/01/17 07:40:18;;;;;;;2.28;0.73;;;20.50;99.90;;;;;;5027656;28;20408;-58
2023/01/17 07:42:45;;;;;;;1.92;0.98;;;20.60;99.90;;;;;;5028583;28;20416;-58
2023/01/17 07:45:14;;;;;;;2.08;0.88;;;20.30;99.90;;;;;;5028261;28;20382;-59
2023/01/17 07:47:40;;;;;;;1.10;0.70;;;19.80;99.90;;;;;;5026867;28;20401;-59
2023/01/17 07:50:08;;;;;;;2.40;1.00;;;19.70;99.90;;;;;;5027936;28;20392;-59
2023/01/17 07:52:34;;;;;;;1.48;0.68;;;19.70;99.90;;;;;;5041404;28;20404;-60
2023/01/17 07:55:00;;;;;;;1.80;0.73;;;19.70;99.90;;;;;;5055764;28;20413;-58
2023/01/17 07:57:25;;;;;;;4.03;0.77;;;19.90;99.90;;;;;;5066143;28;20381;-59
2023/01/17 07:59:51;;;;;;;0.70;0.60;;;20.00;99.90;;;;;;5051404;28;20934;-59
2023/01/17 08:02:22;;;;;;;1.77;0.60;;;20.00;99.90;;;;;;5067520;28;20819;-59
2023/01/17 08:04:48;;;;;;;2.10;0.60;;;20.10;99.90;;;;;;5067958;28;20864;-59
2023/01/17 08:07:15;;;;;;;2.13;0.52;;;20.20;99.90;;;;;;5066719;28;20366;-60
2023/01/17 08:09:42;;;;;;;1.30;0.55;;;20.30;99.90;;;;;;5063649;28;20401;-59
2023/01/17 08:12:08;;;;;;;1.23;0.70;;;20.30;99.90;;;;;;5046509;28;20393;-58
2023/01/17 08:14:34;;;;;;;3.47;0.50;;;20.40;99.90;;;;;;5055500;28;20463;-58
2023/01/17 08:17:04;;;;;;;2.95;0.57;;;20.30;99.90;;;;;;5050025;28;20443;-59
2023/01/17 08:19:30;;;;;;;1.30;0.73;;;20.40;99.90;;;;;;5062873;28;20493;-58
2023/01/17 08:21:56;;;;;;;2.60;0.80;;;20.40;99.90;;;;;;5067499;28;20806;-59
2023/01/17 08:24:21;;;;;;;1.13;0.60;;;20.40;99.90;;;;;;5055898;28;20479;-58
2023/01/17 08:26:47;;;;;;;1.93;0.70;;;20.50;99.90;;;;;;5069495;28;20421;-58
2023/01/17 08:29:13;;;;;;;2.38;0.50;;;20.50;99.90;;;;;;5068744;28;20429;-59
2023/01/17 08:31:39;;;;;;;2.45;1.00;;;20.50;99.90;;;;;;5071049;28;20386;-58
2023/01/17 08:34:05;;;;;;;1.90;0.63;;;20.50;99.90;;;;;;5071242;28;20405;-58
2023/01/17 08:36:31;;;;;;;0.93;0.60;;;20.60;99.90;;;;;;5055437;28;20404;-58
2023/01/17 08:38:57;;;;;;;1.60;0.73;;;20.60;99.90;;;;;;5050290;28;20372;-59
2023/01/17 08:41:26;;;;;;;1.10;0.60;;;20.60;99.90;;;;;;5040058;28;20397;-59
2023/01/17 08:43:51;;;;;;;2.38;0.90;;;20.60;99.90;;;;;;5048572;28;20885;-59
2023/01/17 08:46:17;;;;;;;2.03;0.70;;;20.60;99.90;;;;;;5050403;28;20422;-59
2023/01/17 08:48:43;;;;;;;1.65;0.68;;;20.60;99.90;;;;;;5049875;28;20888;-59
2023/01/17 08:51:10;;;;;;;1.75;1.00;;;20.70;99.90;;;;;;5056280;28;20398;-60
2023/01/17 08:53:36;;;;;;;1.05;0.63;;;20.70;99.90;;;;;;5070917;28;20394;-59
2023/01/17 08:56:03;;;;;;;1.00;0.60;;;20.70;99.90;;;;;;5071020;28;20385;-59
2023/01/17 08:58:30;;;;;;;0.60;0.50;;;20.70;99.90;;;;;;5065656;28;20378;-60
2023/01/17 09:01:01;;;;;;;2.05;0.80;;;20.60;99.90;;;;;;5068254;28;20382;-58
2023/01/17 09:03:26;;;;;;;2.40;0.70;;;20.60;99.90;;;;;;5070349;28;20382;-59
2023/01/17 09:06:00;;;;;;;0.67;0.40;;;20.60;99.90;;;;;;5063501;28;20400;-59
2023/01/17 09:08:26;;;;;;;1.58;0.93;;;20.70;99.90;;;;;;5048441;28;20403;-58
2023/01/17 09:10:52;;;;;;;1.57;0.80;;;20.70;99.90;;;;;;5065224;28;20382;-59
2023/01/17 09:13:17;;;;;;;1.13;0.70;;;20.80;99.90;;;;;;5055549;28;20415;-59
2023/01/17 09:15:43;;;;;;;1.60;0.60;;;20.80;99.90;;;;;;5050064;28;20387;-58
2023/01/17 09:18:09;;;;;;;1.50;0.90;;;20.80;99.90;;;;;;5058348;28;20853;-59
2023/01/17 09:20:35;;;;;;;1.17;0.70;;;20.80;99.90;;;;;;5070388;28;20409;-59
2023/01/17 09:23:02;;;;;;;0.95;0.60;;;20.80;99.90;;;;;;5053107;28;20785;-60
2023/01/17 09:25:28;;;;;;;0.88;0.63;;;20.80;99.90;;;;;;5040957;28;20894;-59
2023/01/17 09:27:54;;;;;;;1.92;0.60;;;20.80;99.90;;;;;;5068907;28;20374;-59
2023/01/17 09:30:20;;;;;;;2.10;0.77;;;20.80;99.90;;;;;;5069608;28;20381;-59
2023/01/17 09:32:53;;;;;;;0.90;0.60;;;20.90;99.90;;;;;;5070008;28;20374;-59
2023/01/17 09:35:19;;;;;;;3.53;0.60;;;20.90;99.90;;;;;;5064850;28;20462;-59
2023/01/17 09:37:49;;;;;;;1.13;0.70;;;20.90;99.90;;;;;;5068834;28;20411;-59
2023/01/17 09:40:20;;;;;;;1.90;0.70;;;20.90;99.90;;;;;;5069543;28;20842;-59
2023/01/17 09:42:49;;;;;;;1.80;0.60;;;20.90;99.90;;;;;;5069453;28;20367;-59
2023/01/17 09:45:17;;;;;;;1.80;0.68;;;20.90;99.90;;;;;;5066717;28;20452;-59
2023/01/17 09:47:48;;;;;;;0.98;0.70;;;20.90;99.90;;;;;;5053754;28;20403;-59
2023/01/17 09:50:30;;;;;;;4.00;0.70;;;20.90;99.90;;;;;;5049699;28;20475;-59
2023/01/17 09:53:03;;;;;;;1.23;0.88;;;20.90;99.90;;;;;;5047964;28;20375;-59
2023/01/17 09:56:09;;;;;;;0.80;0.60;;;20.90;99.90;;;;;;5069971;28;20374;-59
2023/01/17 09:58:59;;;;;;;1.52;0.77;;;20.90;99.90;;;;;;5065712;28;20382;-59
2023/01/17 10:01:44;;;;;;;1.13;0.80;;;20.90;99.90;;;;;;5062514;28;20410;-58
2023/01/17 10:04:39;;;;;;;0.93;0.60;;;20.90;99.90;;;;;;5068007;28;20499;-59
2023/01/17 10:07:32;;;;;;;1.45;0.70;;;20.90;99.90;;;;;;5067313;28;20382;-59
2023/01/17 10:10:28;;;;;;;1.38;0.75;;;21.00;99.90;;;;;;5067910;28;20394;-58
2023/01/17 10:13:02;;;;;;;1.30;0.70;;;21.00;99.90;;;;;;5067648;28;20382;-58
2023/01/17 10:15:30;;;;;;;1.33;0.60;;;21.00;99.90;;;;;;5069194;28;20382;-58
2023/01/17 10:18:27;;;;;;;1.20;0.70;;;21.00;99.90;;;;;;5067699;28;20374;-59
2023/01/17 10:21:09;;;;;;;1.55;0.80;;;20.90;99.90;;;;;;5059328;28;20413;-58
2023/01/17 10:23:41;;;;;;;1.25;0.60;;;21.00;99.90;;;;;;5068760;28;20382;-57
2023/01/17 10:26:22;;;;;;;1.17;0.90;;;21.00;99.90;;;;;;5067820;28;20389;-59
2023/01/17 10:28:51;;;;;;;1.03;0.67;;;21.00;99.90;;;;;;5068021;28;20427;-58
2023/01/17 10:31:23;;;;;;;1.10;0.90;;;21.00;99.90;;;;;;5066396;28;20406;-59
2023/01/17 10:33:57;;;;;;;1.33;0.70;;;21.00;99.90;;;;;;5068829;28;20463;-60
2023/01/17 10:36:28;;;;;;;1.35;0.75;;;21.00;99.90;;;;;;5067874;28;20382;-59
2023/01/17 10:39:01;;;;;;;0.50;0.50;;;21.00;99.90;;;;;;5066423;28;20452;-59
2023/01/17 10:41:41;;;;;;;0.80;0.60;;;21.00;99.90;;;;;;5068699;28;20906;-58
2023/01/17 10:44:21;;;;;;;0.75;0.50;;;21.00;99.90;;;;;;5068767;28;20390;-58
2023/01/17 10:47:19;;;;;;;0.80;0.60;;;21.00;99.90;;;;;;5060881;28;20375;-58
2023/01/17 10:49:48;;;;;;;0.60;0.50;;;21.00;99.90;;;;;;5061900;28;20390;-59
2023/01/17 10:52:23;;;;;;;1.13;0.60;;;21.00;99.90;;;;;;5068872;28;20374;-60
2023/01/17 10:55:10;;;;;;;1.00;0.60;;;21.00;99.90;;;;;;5044411;28;20894;-59
2023/01/17 10:57:44;;;;;;;1.27;0.60;;;21.00;99.90;;;;;;5050948;28;20376;-58
2023/01/17 11:00:22;;;;;;;0.57;0.50;;;21.00;99.90;;;;;;5048597;28;20372;-59
2023/01/17 11:02:49;;;;;;;1.17;0.47;;;21.00;99.90;;;;;;5052962;28;20393;-58
2023/01/17 11:05:30;;;;;;;1.30;0.60;;;20.90;99.90;;;;;;5028273;28;20405;-58
2023/01/17 11:08:04;;;;;;;0.90;0.63;;;20.90;99.90;;;;;;5026959;28;20475;-58
2023/01/17 11:10:40;;;;;;;1.95;0.60;;;20.90;99.90;;;;;;5055725;28;20392;-58
2023/01/17 11:13:38;;;;;;;1.20;0.57;;;20.80;99.90;;;;;;5065555;28;20401;-59
2023/01/17 11:16:08;;;;;;;2.38;0.85;;;20.70;99.90;;;;;;5068365;28;20483;-58
2023/01/17 11:18:38;;;;;;;2.33;0.90;;;20.80;99.90;;;;;;5053808;28;20392;-60
2023/01/17 11:21:28;;;;;;;2.75;0.73;;;20.80;99.90;;;;;;5046292;28;20909;-59
2023/01/17 11:23:56;;;;;;;2.45;0.63;;;20.80;99.90;;;;;;5047765;28;20862;-59
2023/01/17 11:26:26;;;;;;;2.58;0.80;;;20.90;99.90;;;;;;5046341;28;20480;-59
2023/01/17 11:29:11;;;;;;;2.70;0.60;;;20.90;99.90;;;;;;5036036;28;20399;-60
2023/01/17 11:31:37;;;;;;;2.13;0.70;;;20.90;99.90;;;;;;5067477;28;20382;-60
2023/01/17 11:34:28;;;;;;;1.57;0.67;;;21.00;99.90;;;;;;5053644;28;20414;-59
2023/01/17 11:37:18;;;;;;;6.70;0.85;;;21.00;99.90;;;;;;5063138;28;20419;-58
2023/01/17 11:39:46;;;;;;;1.48;0.70;;;20.90;99.90;;;;;;5065766;28;20803;-59
2023/01/17 11:42:32;;;;;;;2.03;0.68;;;20.90;99.90;;;;;;5068952;28;20481;-61
2023/01/17 11:45:31;;;;;;;1.13;0.60;;;21.00;99.90;;;;;;5064603;28;20394;-58
2023/01/17 11:48:11;;;;;;;1.63;0.60;;;20.90;99.90;;;;;;5052193;28;20414;-59
2023/01/17 11:50:56;;;;;;;1.20;0.63;;;21.00;99.90;;;;;;5054931;28;20459;-59
2023/01/17 11:53:30;;;;;;;0.90;0.50;;;21.00;99.90;;;;;;5067144;28;20443;-59
2023/01/17 11:56:06;;;;;;;2.22;0.63;;;21.00;99.90;;;;;;5068760;28;20917;-59
2023/01/17 11:58:35;;;;;;;2.10;0.80;;;21.00;99.90;;;;;;5070524;28;20405;-59
2023/01/17 12:01:01;;;;;;;0.73;0.50;;;21.00;99.90;;;;;;5060843;28;20909;-59
2023/01/17 12:03:43;;;;;;;2.63;0.70;;;21.00;99.90;;;;;;5052459;28;20379;-58
2023/01/17 12:06:25;;;;;;;1.17;0.67;;;21.00;99.90;;;;;;5051853;28;20395;-60
2023/01/17 12:09:09;;;;;;;0.97;0.63;;;21.00;99.90;;;;;;5050040;28;20378;-59
2023/01/17 12:13:59;;;;;;;1.33;0.55;;;21.00;99.90;;;;;;5051331;28;20375;-59
2023/01/17 12:14:43;;;;;;;2.38;0.70;;;21.00;99.90;;;;;;5051250;28;20422;-58
2023/01/17 12:17:31;;;;;;;0.70;0.55;;;21.00;99.90;;;;;;5049949;28;20819;-58
2023/01/17 12:20:00;;;;;;;1.45;0.80;;;21.00;99.90;;;;;;5050558;28;20379;-59
2023/01/17 12:22:32;;;;;;;1.50;0.97;;;21.00;99.90;;;;;;5051071;28;20437;-58
2023/01/17 12:25:17;;;;;;;1.90;0.55;;;21.00;99.90;;;;;;5050426;28;20495;-59
2023/01/17 12:27:54;;;;;;;1.25;0.50;;;21.00;99.90;;;;;;5049934;28;20372;-59
2023/01/17 12:30:41;;;;;;;1.15;0.70;;;20.90;99.90;;;;;;5050759;28;20388;-59
2023/01/17 12:33:18;;;;;;;1.05;0.50;;;20.90;99.90;;;;;;5050728;28;20380;-59
2023/01/17 12:35:49;;;;;;;1.48;0.60;;;20.90;99.90;;;;;;5051285;28;20462;-59
2023/01/17 12:38:31;;;;;;;1.88;0.60;;;20.90;99.90;;;;;;5050475;28;20923;-58
2023/01/17 12:41:04;;;;;;;1.92;0.40;;;21.00;99.90;;;;;;5050968;28;20387;-58
2023/01/17 12:43:38;;;;;;;2.17;0.60;;;20.90;99.90;;;;;;5051124;28;20379;-60
2023/01/17 12:46:32;;;;;;;1.45;0.98;;;20.90;99.90;;;;;;5045963;28;20870;-58
2023/01/17 12:49:43;;;;;;;1.60;0.63;;;20.90;99.90;;;;;;5049470;28;20854;-59
2023/01/17 12:52:28;;;;;;;0.93;0.57;;;20.90;99.90;;;;;;5041925;28;20805;-59
2023/01/17 12:55:02;;;;;;;0.90;0.60;;;20.90;99.90;;;;;;5050990;28;20437;-58
2023/01/17 12:57:32;;;;;;;2.00;0.73;;;20.90;99.90;;;;;;5049941;28;20384;-59
2023/01/17 13:00:09;;;;;;;1.45;0.50;;;20.90;99.90;;;;;;5050674;28;20722;-58
2023/01/17 13:02:38;;;;;;;0.50;0.40;;;21.00;99.90;;;;;;5049336;28;20419;-59
2023/01/17 13:05:22;;;;;;;2.83;0.70;;;21.00;99.90;;;;;;5051004;28;20380;-59
2023/01/17 13:08:22;;;;;;;3.08;0.80;;;20.90;99.90;;;;;;5057906;28;20374;-58
2023/01/17 13:11:03;;;;;;;3.00;0.70;;;20.80;99.90;;;;;;5051713;28;20419;-59
2023/01/17 13:13:31;;;;;;;2.53;0.88;;;20.70;99.90;;;;;;5046030;28;20477;-59
2023/01/17 13:16:06;;;;;;;1.77;0.88;;;20.70;99.90;;;;;;5051758;28;20712;-60
2023/01/17 13:18:34;;;;;;;1.70;0.68;;;20.70;99.90;;;;;;5048611;28;20376;-59
2023/01/17 13:21:08;;;;;;;3.63;0.80;;;20.70;99.90;;;;;;5045536;28;20402;-60
2023/01/17 13:23:58;;;;;;;2.58;0.80;;;20.60;99.90;;;;;;5060852;28;20493;-59
2023/01/17 13:26:48;;;;;;;1.33;0.90;;;20.60;99.90;;;;;;5060642;28;20384;-59
2023/01/17 13:29:36;;;;;;;1.67;0.65;;;20.60;99.90;;;;;;5049771;28;20383;-59
2023/01/17 13:32:23;;;;;;;1.63;1.00;;;20.60;99.90;;;;;;5048750;28;20372;-59
2023/01/17 13:35:21;;;;;;;2.58;0.70;;;20.60;99.90;;;;;;5048496;28;20453;-58
2023/01/17 13:38:15;;;;;;;2.87;0.70;;;20.60;99.90;;;;;;5047465;28;20379;-59
2023/01/17 13:41:02;;;;;;;2.45;0.85;;;20.60;99.90;;;;;;5045783;28;20394;-59
2023/01/17 13:43:33;;;;;;;3.90;0.70;;;20.70;99.90;;;;;;5048293;28;20442;-59
2023/01/17 13:46:04;;;;;;;2.47;0.85;;;20.60;99.90;;;;;;5045705;28;20843;-59
2023/01/17 13:48:32;;;;;;;2.00;0.82;;;20.60;99.90;;;;;;5048109;28;20510;-59
2023/01/17 13:51:11;;;;;;;2.80;0.82;;;20.50;99.90;;;;;;5046248;28;20388;-59
2023/01/17 13:53:40;;;;;;;2.35;0.80;;;20.60;99.90;;;;;;5042031;28;20924;-59
2023/01/17 13:56:17;;;;;;;2.90;0.80;;;20.70;99.90;;;;;;5047737;28;20407;-59
2023/01/17 13:58:55;;;;;;;1.17;0.70;;;20.70;99.90;;;;;;5046347;28;20386;-59
2023/01/17 14:01:21;;;;;;;3.03;0.80;;;20.60;99.90;;;;;;5046525;28;20466;-59
2023/01/17 14:03:53;;;;;;;3.08;1.10;;;20.60;99.90;;;;;;5048318;28;20522;-59
2023/01/17 14:06:37;;;;;;;1.67;0.80;;;20.60;99.90;;;;;;5042964;28;20442;-59
2023/01/17 14:09:20;;;;;;;3.00;0.93;;;20.60;99.90;;;;;;5043444;28;20392;-60
2023/01/17 14:12:13;;;;;;;1.80;0.88;;;20.60;99.90;;;;;;5047418;28;20386;-60
2023/01/17 14:14:40;;;;;;;3.25;0.80;;;20.60;99.90;;;;;;5043881;28;20447;-59
2023/01/17 14:17:19;;;;;;;2.72;0.80;;;20.60;99.90;;;;;;5048758;28;20408;-59
2023/01/17 14:19:47;;;;;;;2.63;0.80;;;20.60;99.90;;;;;;5046769;28;20490;-61
2023/01/17 14:22:18;;;;;;;2.30;1.17;;;20.60;99.90;;;;;;5052564;28;20467;-59
2023/01/17 14:25:08;;;;;;;4.40;1.00;;;20.60;99.90;;;;;;5046402;28;20400;-58
2023/01/17 14:27:45;;;;;;;2.17;0.80;;;20.60;99.90;;;;;;5047705;28;20383;-59
2023/01/17 14:30:36;;;;;;;4.70;1.10;;;20.70;99.90;;;;;;5046773;28;20408;-58
2023/01/17 14:33:03;;;;;;;3.60;0.90;;;20.70;99.90;;;;;;5023412;28;20871;-59
2023/01/17 14:35:33;;;;;;;3.13;0.95;;;20.60;99.90;;;;;;5037271;28;20403;-58